sensor_id;sensor_type;location;lat;lon;timestamp;temperature;humidity
7934;DHT22;4012;48.896;9.192;2024-03-08T00:00:14;4.10;99.90
7934;DHT22;4012;48.896;9.192;2024-03-08T00:02:40;4.10;99.90
7934;DHT22;4012;48.896;9.192;2024-03-08T00:05:07;4.20;99.90
7934;DHT22;4012;48.896;9.192;2024-03-08T00:07:35;4.20;99.90
7934;DHT22;4012;48.896;9.192;2024-03-08T00:10:02;4.20;99.90
7934;DHT22;4012;48.896;9.192;2024-03-08T00:12:28;4.10;99.90
7934;DHT22;4012;48.896;9.192;2024-03-08T00:14:54;4.00;99.90
7934;DHT22;4012;48.896;9.192;2024-03-08T00:17:20;4.00;99.90
7934;DHT22;4012;48.896;9.192;2024-03-08T00:19:50;3.90;99.90
7934;DHT22;4012;48.896;9.192;2024-03-08T00:22:17;3.90;99.90
7934;DHT22;4012;48.896;9.192;2024-03-08T00:24:43;3.90;99.90
7934;DHT22;4012;48.896;9.192;2024-03-08T00:27:09;3.90;99.90
7934;DHT22;4012;48.896;9.192;2024-03-08T00:29:35;3.90;99.90
7934;DHT22;4012;48.896;9.192;2024-03-08T00:32:00;3.90;99.90
7934;DHT22;4012;48.896;9.192;2024-03-08T00:34:26;3.90;99.90
7934;DHT22;4012;48.896;9.192;2024-03-08T00:36:52;4.00;99.90
7934;DHT22;4012;48.896;9.192;2024-03-08T00:39:18;4.00;99.90
7934;DHT22;4012;48.896;9.192;2024-03-08T00:41:46;4.10;99.90
7934;DHT22;4012;48.896;9.192;2024-03-08T00:44:13;4.10;99.90
7934;DHT22;4012;48.896;9.192;2024-03-08T00:46:38;4.00;99.90
7934;DHT22;4012;48.896;9.192;2024-03-08T00:49:04;3.80;99.90
7934;DHT22;4012;48.896;9.192;2024-03-08T00:51:29;3.80;99.90
7934;DHT22;4012;48.896;9.192;2024-03-08T00:53:55;3.70;99.90
7934;DHT22;4012;48.896;9.192;2024-03-08T00:56:20;3.60;99.90
7934;DHT22;4012;48.896;9.192;2024-03-08T00:58:46;3.50;99.90
7934;DHT22;4012;48.896;9.192;2024-03-08T01:01:13;3.60;99.90
7934;DHT22;4012;48.896;9.192;2024-03-08T01:03:43;3.50;99.90
7934;DHT22;4012;48.896;9.192;2024-03-08T01:06:09;3.50;99.90
7934;DHT22;4012;48.896;9.192;2024-03-08T01:08:34;3.60;99.90
7934;DHT22;4012;48.896;9.192;2024-03-08T01:11:00;3.70;99.90
7934;DHT22;4012;48.896;9.192;2024-03-08T01:13:25;3.70;99.90
7934;DHT22;4012;48.896;9.192;2024-03-08T01:15:51;3.60;99.90
7934;DHT22;4012;48.896;9.192;2024-03-08T01:18:17;3.70;99.90
7934;DHT22;4012;48.896;9.192;2024-03-08T01:20:42;3.70;99.90
7934;DHT22;4012;48.896;9.192;2024-03-08T01:23:08;3.70;99.90
7934;DHT22;4012;48.896;9.192;2024-03-08T01:25:34;3.70;99.90
7934;DHT22;4012;48.896;9.192;2024-03-08T01:27:59;3.70;99.90
7934;DHT22;4012;48.896;9.192;2024-03-08T01:30:25;3.60;99.90
7934;DHT22;4012;48.896;9.192;2024-03-08T01:32:50;3.50;99.90
7934;DHT22;4012;48.896;9.192;2024-03-08T01:35:16;3.50;99.90
7934;DHT22;4012;48.896;9.192;2024-03-08T01:37:42;3.50;99.90
7934;DHT22;4012;48.896;9.192;2024-03-08T01:40:07;3.50;99.90
7934;DHT22;4012;48.896;9.192;2024-03-08T01:42:34;3.30;99.90
7934;DHT22;4012;48.896;9.192;2024-03-08T01:45:06;3.30;99.90
7934;DHT22;4012;48.896;9.192;2024-03-08T01:47:32;3.20;99.90
7934;DHT22;4012;48.896;9.192;2024-03-08T01:49:59;3.20;99.90
7934;DHT22;4012;48.896;9.192;2024-03-08T01:52:27;3.10;99.90
7934;DHT22;4012;48.896;9.192;2024-03-08T01:54:53;3.10;99.90
7934;DHT22;4012;48.896;9.192;2024-03-08T01:57:19;3.20;99.90
7934;DHT22;4012;48.896;9.192;2024-03-08T01:59:45;3.20;99.90
7934;DHT22;4012;48.896;9.192;2024-03-08T02:02:11;3.10;99.90
7934;DHT22;4012;48.896;9.192;2024-03-08T02:04:39;3.10;99.90
7934;DHT22;4012;48.896;9.192;2024-03-08T02:07:05;3.10;99.90
7934;DHT22;4012;48.896;9.192;2024-03-08T02:09:31;3.10;99.90
7934;DHT22;4012;48.896;9.192;2024-03-08T02:11:57;3.10;99.90
7934;DHT22;4012;48.896;9.192;2024-03-08T02:14:22;3.10;99.90
7934;DHT22;4012;48.896;9.192;2024-03-08T02:16:49;3.10;99.90
7934;DHT22;4012;48.896;9.192;2024-03-08T02:19:16;3.00;99.90
7934;DHT22;4012;48.896;9.192;2024-03-08T02:21:42;2.90;99.90
7934;DHT22;4012;48.896;9.192;2024-03-08T02:24:08;2.90;99.90
7934;DHT22;4012;48.896;9.192;2024-03-08T02:26:34;2.90;99.90
7934;DHT22;4012;48.896;9.192;2024-03-08T02:29:00;2.90;99.90
7934;DHT22;4012;48.896;9.192;2024-03-08T02:31:26;2.90;99.90
7934;DHT22;4012;48.896;9.192;2024-03-08T02:33:51;2.80;99.90
7934;DHT22;4012;48.896;9.192;2024-03-08T02:36:17;2.80;99.90
7934;DHT22;4012;48.896;9.192;2024-03-08T02:38:43;2.80;99.90
7934;DHT22;4012;48.896;9.192;2024-03-08T02:41:08;2.80;99.90
7934;DHT22;4012;48.896;9.192;2024-03-08T02:43:34;2.80;99.90
7934;DHT22;4012;48.896;9.192;2024-03-08T02:45:59;2.90;99.90
7934;DHT22;4012;48.896;9.192;2024-03-08T02:48:25;2.90;99.90
7934;DHT22;4012;48.896;9.192;2024-03-08T02:50:51;2.80;99.90
7934;DHT22;4012;48.896;9.192;2024-03-08T02:53:17;2.80;99.90
7934;DHT22;4012;48.896;9.192;2024-03-08T02:55:44;2.80;99.90
7934;DHT22;4012;48.896;9.192;2024-03-08T02:58:10;2.80;99.90
7934;DHT22;4012;48.896;9.192;2024-03-08T03:00:36;2.80;99.90
7934;DHT22;4012;48.896;9.192;2024-03-08T03:03:02;2.90;99.90
7934;DHT22;4012;48.896;9.192;2024-03-08T03:05:29;2.80;99.90
7934;DHT22;4012;48.896;9.192;2024-03-08T03:07:55;2.80;99.90
7934;DHT22;4012;48.896;9.192;2024-03-08T03:10:21;2.80;99.90
7934;DHT22;4012;48.896;9.192;2024-03-08T03:12:47;2.80;99.90
7934;DHT22;4012;48.896;9.192;2024-03-08T03:15:16;2.80;99.90
7934;DHT22;4012;48.896;9.192;2024-03-08T03:17:49;2.90;99.90
7934;DHT22;4012;48.896;9.192;2024-03-08T03:20:19;2.90;99.90
7934;DHT22;4012;48.896;9.192;2024-03-08T03:22:52;2.90;99.90
7934;DHT22;4012;48.896;9.192;2024-03-08T03:25:19;2.80;99.90
7934;DHT22;4012;48.896;9.192;2024-03-08T03:27:52;2.80;99.90
7934;DHT22;4012;48.896;9.192;2024-03-08T03:30:18;2.70;99.90
7934;DHT22;4012;48.896;9.192;2024-03-08T03:32:47;2.80;99.90
7934;DHT22;4012;48.896;9.192;2024-03-08T03:35:19;2.80;99.90
7934;DHT22;4012;48.896;9.192;2024-03-08T03:37:46;2.90;99.90
7934;DHT22;4012;48.896;9.192;2024-03-08T03:40:27;2.90;99.90
7934;DHT22;4012;48.896;9.192;2024-03-08T03:42:53;2.70;99.90
7934;DHT22;4012;48.896;9.192;2024-03-08T03:45:19;2.70;99.90
7934;DHT22;4012;48.896;9.192;2024-03-08T03:47:45;2.60;99.90
7934;DHT22;4012;48.896;9.192;2024-03-08T03:50:11;2.70;99.90
7934;DHT22;4012;48.896;9.192;2024-03-08T03:52:37;2.80;99.90
7934;DHT22;4012;48.896;9.192;2024-03-08T03:55:03;2.80;99.90
7934;DHT22;4012;48.896;9.192;2024-03-08T03:57:30;2.90;99.90
7934;DHT22;4012;48.896;9.192;2024-03-08T03:59:56;2.70;99.90
7934;DHT22;4012;48.896;9.192;2024-03-08T04:02:24;2.70;99.90
7934;DHT22;4012;48.896;9.192;2024-03-08T04:04:49;2.60;99.90
7934;DHT22;4012;48.896;9.192;2024-03-08T04:07:15;2.60;99.90
7934;DHT22;4012;48.896;9.192;2024-03-08T04:09:41;2.60;99.90
7934;DHT22;4012;48.896;9.192;2024-03-08T04:12:06;2.60;99.90
7934;DHT22;4012;48.896;9.192;2024-03-08T04:14:32;2.50;99.90
7934;DHT22;4012;48.896;9.192;2024-03-08T04:16:59;2.50;99.90
7934;DHT22;4012;48.896;9.192;2024-03-08T04:19:25;2.50;99.90
7934;DHT22;4012;48.896;9.192;2024-03-08T04:21:52;2.50;99.90
7934;DHT22;4012;48.896;9.192;2024-03-08T04:24:17;2.50;99.90
7934;DHT22;4012;48.896;9.192;2024-03-08T04:26:43;2.50;99.90
7934;DHT22;4012;48.896;9.192;2024-03-08T04:29:09;2.50;99.90
7934;DHT22;4012;48.896;9.192;2024-03-08T04:31:34;2.40;99.90
7934;DHT22;4012;48.896;9.192;2024-03-08T04:34:00;2.40;99.90
7934;DHT22;4012;48.896;9.192;2024-03-08T04:36:25;2.40;99.90
7934;DHT22;4012;48.896;9.192;2024-03-08T04:38:51;2.40;99.90
7934;DHT22;4012;48.896;9.192;2024-03-08T04:41:17;2.40;99.90
7934;DHT22;4012;48.896;9.192;2024-03-08T04:43:43;2.40;99.90
7934;DHT22;4012;48.896;9.192;2024-03-08T04:46:09;2.40;99.90
7934;DHT22;4012;48.896;9.192;2024-03-08T04:48:35;2.30;99.90
7934;DHT22;4012;48.896;9.192;2024-03-08T04:51:03;2.30;99.90
7934;DHT22;4012;48.896;9.192;2024-03-08T04:53:29;2.40;99.90
7934;DHT22;4012;48.896;9.192;2024-03-08T04:55:55;2.40;99.90
7934;DHT22;4012;48.896;9.192;2024-03-08T04:58:23;2.40;99.90
7934;DHT22;4012;48.896;9.192;2024-03-08T05:00:48;2.30;99.90
7934;DHT22;4012;48.896;9.192;2024-03-08T05:03:15;2.40;99.90
7934;DHT22;4012;48.896;9.192;2024-03-08T05:05:40;2.40;99.90
7934;DHT22;4012;48.896;9.192;2024-03-08T05:08:06;2.40;99.90
7934;DHT22;4012;48.896;9.192;2024-03-08T05:10:32;2.40;99.90
7934;DHT22;4012;48.896;9.192;2024-03-08T05:12:58;2.30;99.90
7934;DHT22;4012;48.896;9.192;2024-03-08T05:15:23;2.30;99.90
7934;DHT22;4012;48.896;9.192;2024-03-08T05:17:49;2.30;99.90
7934;DHT22;4012;48.896;9.192;2024-03-08T05:20:15;2.30;99.90
7934;DHT22;4012;48.896;9.192;2024-03-08T05:22:43;2.40;99.90
7934;DHT22;4012;48.896;9.192;2024-03-08T05:25:09;2.40;99.90
7934;DHT22;4012;48.896;9.192;2024-03-08T05:27:35;2.50;99.90
7934;DHT22;4012;48.896;9.192;2024-03-08T05:30:02;2.50;99.90
7934;DHT22;4012;48.896;9.192;2024-03-08T05:32:29;2.50;99.90
7934;DHT22;4012;48.896;9.192;2024-03-08T05:34:55;2.40;99.90
7934;DHT22;4012;48.896;9.192;2024-03-08T05:37:20;2.30;99.90
7934;DHT22;4012;48.896;9.192;2024-03-08T05:39:46;2.30;99.90
7934;DHT22;4012;48.896;9.192;2024-03-08T05:42:11;2.30;99.90
7934;DHT22;4012;48.896;9.192;2024-03-08T05:44:37;2.40;99.90
7934;DHT22;4012;48.896;9.192;2024-03-08T05:47:03;2.40;99.90
7934;DHT22;4012;48.896;9.192;2024-03-08T05:49:28;2.50;99.90
7934;DHT22;4012;48.896;9.192;2024-03-08T05:51:54;2.50;99.90
7934;DHT22;4012;48.896;9.192;2024-03-08T05:54:19;2.60;99.90
7934;DHT22;4012;48.896;9.192;2024-03-08T05:56:47;2.60;99.90
7934;DHT22;4012;48.896;9.192;2024-03-08T05:59:13;2.60;99.90
7934;DHT22;4012;48.896;9.192;2024-03-08T06:01:38;2.60;99.90
7934;DHT22;4012;48.896;9.192;2024-03-08T06:04:06;2.50;99.90
7934;DHT22;4012;48.896;9.192;2024-03-08T06:06:32;2.50;99.90
7934;DHT22;4012;48.896;9.192;2024-03-08T06:08:58;2.50;99.90
7934;DHT22;4012;48.896;9.192;2024-03-08T06:11:25;2.40;99.90
7934;DHT22;4012;48.896;9.192;2024-03-08T06:13:55;2.40;99.90
7934;DHT22;4012;48.896;9.192;2024-03-08T06:16:28;2.40;99.90
7934;DHT22;4012;48.896;9.192;2024-03-08T06:18:56;2.30;99.90
7934;DHT22;4012;48.896;9.192;2024-03-08T06:21:22;2.40;99.90
7934;DHT22;4012;48.896;9.192;2024-03-08T06:23:48;2.40;99.90
7934;DHT22;4012;48.896;9.192;2024-03-08T06:26:14;2.40;99.90
7934;DHT22;4012;48.896;9.192;2024-03-08T06:28:39;2.40;99.90
7934;DHT22;4012;48.896;9.192;2024-03-08T06:31:05;2.50;99.90
7934;DHT22;4012;48.896;9.192;2024-03-08T06:33:31;2.60;99.90
7934;DHT22;4012;48.896;9.192;2024-03-08T06:35:57;2.70;99.90
7934;DHT22;4012;48.896;9.192;2024-03-08T06:38:24;2.90;99.90
7934;DHT22;4012;48.896;9.192;2024-03-08T06:40:50;3.00;99.90
7934;DHT22;4012;48.896;9.192;2024-03-08T06:43:16;3.00;99.90
7934;DHT22;4012;48.896;9.192;2024-03-08T06:45:43;3.10;99.90
7934;DHT22;4012;48.896;9.192;2024-03-08T06:48:17;3.10;99.90
7934;DHT22;4012;48.896;9.192;2024-03-08T06:50:44;3.00;99.90
7934;DHT22;4012;48.896;9.192;2024-03-08T06:53:11;3.20;99.90
7934;DHT22;4012;48.896;9.192;2024-03-08T06:55:36;3.10;99.90
7934;DHT22;4012;48.896;9.192;2024-03-08T06:58:02;3.20;99.90
7934;DHT22;4012;48.896;9.192;2024-03-08T07:00:28;3.30;99.90
7934;DHT22;4012;48.896;9.192;2024-03-08T07:02:58;3.50;99.90
7934;DHT22;4012;48.896;9.192;2024-03-08T07:05:27;3.50;99.90
7934;DHT22;4012;48.896;9.192;2024-03-08T07:07:53;3.70;99.90
7934;DHT22;4012;48.896;9.192;2024-03-08T07:10:22;3.70;99.90
7934;DHT22;4012;48.896;9.192;2024-03-08T07:12:51;3.80;99.90
7934;DHT22;4012;48.896;9.192;2024-03-08T07:15:18;3.60;99.90
7934;DHT22;4012;48.896;9.192;2024-03-08T07:17:45;3.80;99.90
7934;DHT22;4012;48.896;9.192;2024-03-08T07:20:11;3.70;99.90
7934;DHT22;4012;48.896;9.192;2024-03-08T07:22:38;4.00;99.90
7934;DHT22;4012;48.896;9.192;2024-03-08T07:25:07;3.90;99.90
7934;DHT22;4012;48.896;9.192;2024-03-08T07:27:50;4.00;99.90
7934;DHT22;4012;48.896;9.192;2024-03-08T07:30:16;4.00;99.90
7934;DHT22;4012;48.896;9.192;2024-03-08T07:33:00;4.10;99.90
7934;DHT22;4012;48.896;9.192;2024-03-08T07:35:28;4.20;99.90
7934;DHT22;4012;48.896;9.192;2024-03-08T07:37:54;4.30;99.90
7934;DHT22;4012;48.896;9.192;2024-03-08T07:40:21;4.40;99.90
7934;DHT22;4012;48.896;9.192;2024-03-08T07:42:47;4.10;99.90
7934;DHT22;4012;48.896;9.192;2024-03-08T07:45:12;4.20;99.90
7934;DHT22;4012;48.896;9.192;2024-03-08T07:47:38;4.00;99.90
7934;DHT22;4012;48.896;9.192;2024-03-08T07:50:05;4.20;99.90
7934;DHT22;4012;48.896;9.192;2024-03-08T07:52:34;4.30;99.90
7934;DHT22;4012;48.896;9.192;2024-03-08T07:55:00;4.30;99.90
7934;DHT22;4012;48.896;9.192;2024-03-08T07:57:25;4.30;99.90
7934;DHT22;4012;48.896;9.192;2024-03-08T07:59:52;4.20;99.90
7934;DHT22;4012;48.896;9.192;2024-03-08T08:02:17;4.30;99.90
7934;DHT22;4012;48.896;9.192;2024-03-08T08:04:43;4.50;99.90
7934;DHT22;4012;48.896;9.192;2024-03-08T08:07:10;4.50;99.90
7934;DHT22;4012;48.896;9.192;2024-03-08T08:09:36;4.40;99.90
7934;DHT22;4012;48.896;9.192;2024-03-08T08:12:03;4.50;99.90
7934;DHT22;4012;48.896;9.192;2024-03-08T08:14:29;4.50;99.90
7934;DHT22;4012;48.896;9.192;2024-03-08T08:16:56;4.50;99.90
7934;DHT22;4012;48.896;9.192;2024-03-08T08:19:23;4.60;99.90
7934;DHT22;4012;48.896;9.192;2024-03-08T08:21:48;4.70;99.90
7934;DHT22;4012;48.896;9.192;2024-03-08T08:24:14;4.60;99.90
7934;DHT22;4012;48.896;9.192;2024-03-08T08:26:40;4.70;99.90
7934;DHT22;4012;48.896;9.192;2024-03-08T08:29:07;4.70;99.90
7934;DHT22;4012;48.896;9.192;2024-03-08T08:31:32;4.60;99.90
7934;DHT22;4012;48.896;9.192;2024-03-08T08:34:01;4.70;99.90
7934;DHT22;4012;48.896;9.192;2024-03-08T08:36:28;4.70;99.90
7934;DHT22;4012;48.896;9.192;2024-03-08T08:38:55;4.90;99.90
7934;DHT22;4012;48.896;9.192;2024-03-08T08:41:23;5.00;99.90
7934;DHT22;4012;48.896;9.192;2024-03-08T08:43:48;5.00;99.90
7934;DHT22;4012;48.896;9.192;2024-03-08T08:46:17;5.30;99.90
7934;DHT22;4012;48.896;9.192;2024-03-08T08:48:43;5.30;99.90
7934;DHT22;4012;48.896;9.192;2024-03-08T08:51:11;5.10;99.90
7934;DHT22;4012;48.896;9.192;2024-03-08T08:53:39;5.00;99.90
7934;DHT22;4012;48.896;9.192;2024-03-08T08:56:12;5.00;99.90
7934;DHT22;4012;48.896;9.192;2024-03-08T08:58:42;5.00;99.90
7934;DHT22;4012;48.896;9.192;2024-03-08T09:01:08;5.20;99.90
7934;DHT22;4012;48.896;9.192;2024-03-08T09:03:38;5.20;99.90
7934;DHT22;4012;48.896;9.192;2024-03-08T09:06:06;5.30;99.90
7934;DHT22;4012;48.896;9.192;2024-03-08T09:08:35;5.20;99.90
7934;DHT22;4012;48.896;9.192;2024-03-08T09:11:01;5.10;99.90
7934;DHT22;4012;48.896;9.192;2024-03-08T09:13:27;5.30;99.90
7934;DHT22;4012;48.896;9.192;2024-03-08T09:15:53;5.30;99.90
7934;DHT22;4012;48.896;9.192;2024-03-08T09:18:18;5.30;99.90
7934;DHT22;4012;48.896;9.192;2024-03-08T09:20:44;5.20;99.90
7934;DHT22;4012;48.896;9.192;2024-03-08T09:23:10;5.00;99.90
7934;DHT22;4012;48.896;9.192;2024-03-08T09:25:36;5.10;99.90
7934;DHT22;4012;48.896;9.192;2024-03-08T09:28:01;5.40;99.90
7934;DHT22;4012;48.896;9.192;2024-03-08T09:30:27;5.40;99.90
7934;DHT22;4012;48.896;9.192;2024-03-08T09:32:52;5.50;99.90
7934;DHT22;4012;48.896;9.192;2024-03-08T09:35:19;5.50;99.90
7934;DHT22;4012;48.896;9.192;2024-03-08T09:37:45;5.50;99.90
7934;DHT22;4012;48.896;9.192;2024-03-08T09:40:13;5.50;99.90
7934;DHT22;4012;48.896;9.192;2024-03-08T09:42:41;5.30;99.90
7934;DHT22;4012;48.896;9.192;2024-03-08T09:45:11;5.50;99.90
7934;DHT22;4012;48.896;9.192;2024-03-08T09:47:41;5.20;99.90
7934;DHT22;4012;48.896;9.192;2024-03-08T09:50:08;5.30;99.90
7934;DHT22;4012;48.896;9.192;2024-03-08T09:52:38;5.40;99.90
7934;DHT22;4012;48.896;9.192;2024-03-08T09:55:10;5.40;99.90
7934;DHT22;4012;48.896;9.192;2024-03-08T09:57:37;5.50;99.90
7934;DHT22;4012;48.896;9.192;2024-03-08T10:00:04;5.60;99.90
7934;DHT22;4012;48.896;9.192;2024-03-08T10:02:45;5.80;99.90
7934;DHT22;4012;48.896;9.192;2024-03-08T10:05:12;5.50;99.90
7934;DHT22;4012;48.896;9.192;2024-03-08T10:07:39;5.50;99.90
7934;DHT22;4012;48.896;9.192;2024-03-08T10:10:05;5.20;99.90
7934;DHT22;4012;48.896;9.192;2024-03-08T10:12:31;5.80;99.90
7934;DHT22;4012;48.896;9.192;2024-03-08T10:14:58;5.40;99.90
7934;DHT22;4012;48.896;9.192;2024-03-08T10:17:24;5.80;99.90
7934;DHT22;4012;48.896;9.192;2024-03-08T10:19:51;5.60;99.90
7934;DHT22;4012;48.896;9.192;2024-03-08T10:22:18;5.90;99.90
7934;DHT22;4012;48.896;9.192;2024-03-08T10:24:48;6.30;99.90
7934;DHT22;4012;48.896;9.192;2024-03-08T10:27:16;6.30;99.90
7934;DHT22;4012;48.896;9.192;2024-03-08T10:29:42;6.50;99.90
7934;DHT22;4012;48.896;9.192;2024-03-08T10:32:10;6.40;99.90
7934;DHT22;4012;48.896;9.192;2024-03-08T10:34:35;6.30;99.90
7934;DHT22;4012;48.896;9.192;2024-03-08T10:37:03;6.30;99.90
7934;DHT22;4012;48.896;9.192;2024-03-08T10:39:35;6.10;99.90
7934;DHT22;4012;48.896;9.192;2024-03-08T10:42:04;6.30;99.90
7934;DHT22;4012;48.896;9.192;2024-03-08T10:49:39;6.90;99.90
7934;DHT22;4012;48.896;9.192;2024-03-08T10:52:09;7.00;99.90
7934;DHT22;4012;48.896;9.192;2024-03-08T10:54:38;6.90;99.90
7934;DHT22;4012;48.896;9.192;2024-03-08T10:57:05;7.10;99.90
7934;DHT22;4012;48.896;9.192;2024-03-08T10:59:32;7.20;99.90
7934;DHT22;4012;48.896;9.192;2024-03-08T11:02:00;7.10;99.90
7934;DHT22;4012;48.896;9.192;2024-03-08T11:04:25;7.10;99.90
7934;DHT22;4012;48.896;9.192;2024-03-08T11:06:52;7.10;99.90
7934;DHT22;4012;48.896;9.192;2024-03-08T11:14:51;7.70;99.90
7934;DHT22;4012;48.896;9.192;2024-03-08T11:19:55;7.70;99.90
7934;DHT22;4012;48.896;9.192;2024-03-08T11:22:30;8.10;99.90
7934;DHT22;4012;48.896;9.192;2024-03-08T11:25:05;8.20;99.90
7934;DHT22;4012;48.896;9.192;2024-03-08T11:27:36;8.50;99.90
7934;DHT22;4012;48.896;9.192;2024-03-08T11:30:06;8.50;99.90
7934;DHT22;4012;48.896;9.192;2024-03-08T11:32:48;8.60;99.90
7934;DHT22;4012;48.896;9.192;2024-03-08T11:35:23;7.80;99.90
7934;DHT22;4012;48.896;9.192;2024-03-08T11:37:48;7.70;99.90
7934;DHT22;4012;48.896;9.192;2024-03-08T11:40:15;8.00;99.90
7934;DHT22;4012;48.896;9.192;2024-03-08T11:42:46;8.00;99.90
7934;DHT22;4012;48.896;9.192;2024-03-08T11:45:17;8.00;99.90
7934;DHT22;4012;48.896;9.192;2024-03-08T11:47:43;7.70;99.90
7934;DHT22;4012;48.896;9.192;2024-03-08T11:50:12;7.60;99.90
7934;DHT22;4012;48.896;9.192;2024-03-08T11:52:38;7.70;99.90
7934;DHT22;4012;48.896;9.192;2024-03-08T11:55:05;7.80;99.90
7934;DHT22;4012;48.896;9.192;2024-03-08T11:57:31;7.60;99.90
7934;DHT22;4012;48.896;9.192;2024-03-08T11:59:58;7.80;99.90
7934;DHT22;4012;48.896;9.192;2024-03-08T12:02:33;7.70;99.90
7934;DHT22;4012;48.896;9.192;2024-03-08T12:05:02;8.00;99.90
7934;DHT22;4012;48.896;9.192;2024-03-08T12:07:31;7.80;99.90
7934;DHT22;4012;48.896;9.192;2024-03-08T12:12:44;8.20;99.90
7934;DHT22;4012;48.896;9.192;2024-03-08T12:15:10;8.30;99.90
7934;DHT22;4012;48.896;9.192;2024-03-08T12:17:37;8.30;99.90
7934;DHT22;4012;48.896;9.192;2024-03-08T12:22:42;8.40;99.90
7934;DHT22;4012;48.896;9.192;2024-03-08T12:25:08;8.40;99.90
7934;DHT22;4012;48.896;9.192;2024-03-08T12:27:37;8.50;99.90
7934;DHT22;4012;48.896;9.192;2024-03-08T12:30:22;8.40;99.90
7934;DHT22;4012;48.896;9.192;2024-03-08T12:32:56;8.50;99.90
7934;DHT22;4012;48.896;9.192;2024-03-08T12:35:23;8.50;99.90
7934;DHT22;4012;48.896;9.192;2024-03-08T12:37:54;8.60;99.90
7934;DHT22;4012;48.896;9.192;2024-03-08T12:40:28;8.70;99.90
7934;DHT22;4012;48.896;9.192;2024-03-08T12:42:58;8.70;99.90
7934;DHT22;4012;48.896;9.192;2024-03-08T12:45:24;8.70;99.90
7934;DHT22;4012;48.896;9.192;2024-03-08T12:47:54;8.80;99.90
7934;DHT22;4012;48.896;9.192;2024-03-08T12:50:21;8.70;99.90
7934;DHT22;4012;48.896;9.192;2024-03-08T12:52:47;8.90;99.90
7934;DHT22;4012;48.896;9.192;2024-03-08T12:55:14;8.90;99.90
7934;DHT22;4012;48.896;9.192;2024-03-08T12:57:42;8.90;99.90
7934;DHT22;4012;48.896;9.192;2024-03-08T13:00:08;8.80;99.90
7934;DHT22;4012;48.896;9.192;2024-03-08T13:02:39;9.00;99.90
7934;DHT22;4012;48.896;9.192;2024-03-08T13:05:05;9.30;99.90
7934;DHT22;4012;48.896;9.192;2024-03-08T13:07:31;9.40;99.90
7934;DHT22;4012;48.896;9.192;2024-03-08T13:09:57;9.40;99.90
7934;DHT22;4012;48.896;9.192;2024-03-08T13:12:25;9.50;99.90
7934;DHT22;4012;48.896;9.192;2024-03-08T13:14:50;9.40;99.90
7934;DHT22;4012;48.896;9.192;2024-03-08T13:17:16;9.30;99.90
7934;DHT22;4012;48.896;9.192;2024-03-08T13:19:44;9.40;99.90
7934;DHT22;4012;48.896;9.192;2024-03-08T13:22:10;9.50;99.90
7934;DHT22;4012;48.896;9.192;2024-03-08T13:24:42;9.50;99.90
7934;DHT22;4012;48.896;9.192;2024-03-08T13:27:08;9.20;99.90
7934;DHT22;4012;48.896;9.192;2024-03-08T13:29:48;9.10;99.90
7934;DHT22;4012;48.896;9.192;2024-03-08T13:32:15;9.50;99.90
7934;DHT22;4012;48.896;9.192;2024-03-08T13:34:42;9.80;99.90
7934;DHT22;4012;48.896;9.192;2024-03-08T13:37:08;9.80;99.90
7934;DHT22;4012;48.896;9.192;2024-03-08T13:39:36;10.00;99.90
7934;DHT22;4012;48.896;9.192;2024-03-08T13:42:10;9.90;99.90
7934;DHT22;4012;48.896;9.192;2024-03-08T13:44:48;9.70;99.90
7934;DHT22;4012;48.896;9.192;2024-03-08T13:47:16;9.90;99.90
7934;DHT22;4012;48.896;9.192;2024-03-08T13:49:42;10.00;99.90
7934;DHT22;4012;48.896;9.192;2024-03-08T13:52:09;9.90;99.90
7934;DHT22;4012;48.896;9.192;2024-03-08T13:54:36;9.70;99.90
7934;DHT22;4012;48.896;9.192;2024-03-08T13:57:02;9.60;99.90
7934;DHT22;4012;48.896;9.192;2024-03-08T13:59:33;9.90;99.90
7934;DHT22;4012;48.896;9.192;2024-03-08T14:02:01;10.20;99.90
7934;DHT22;4012;48.896;9.192;2024-03-08T14:04:28;9.90;99.90
7934;DHT22;4012;48.896;9.192;2024-03-08T14:06:54;10.10;99.90
7934;DHT22;4012;48.896;9.192;2024-03-08T14:09:26;10.10;99.90
7934;DHT22;4012;48.896;9.192;2024-03-08T14:11:54;10.20;99.90
7934;DHT22;4012;48.896;9.192;2024-03-08T14:14:21;10.20;99.90
7934;DHT22;4012;48.896;9.192;2024-03-08T14:16:49;10.10;99.90
7934;DHT22;4012;48.896;9.192;2024-03-08T14:19:18;10.10;99.90
7934;DHT22;4012;48.896;9.192;2024-03-08T14:21:44;10.20;99.90
7934;DHT22;4012;48.896;9.192;2024-03-08T14:24:10;10.20;99.90
7934;DHT22;4012;48.896;9.192;2024-03-08T14:26:35;10.30;99.90
7934;DHT22;4012;48.896;9.192;2024-03-08T14:29:04;10.30;99.90
7934;DHT22;4012;48.896;9.192;2024-03-08T14:31:30;10.20;99.90
7934;DHT22;4012;48.896;9.192;2024-03-08T14:33:56;10.10;99.90
7934;DHT22;4012;48.896;9.192;2024-03-08T14:36:24;10.00;99.90
7934;DHT22;4012;48.896;9.192;2024-03-08T14:38:51;10.10;99.90
7934;DHT22;4012;48.896;9.192;2024-03-08T14:41:18;10.30;99.90
7934;DHT22;4012;48.896;9.192;2024-03-08T14:43:43;10.40;99.90
7934;DHT22;4012;48.896;9.192;2024-03-08T14:46:13;10.40;99.90
7934;DHT22;4012;48.896;9.192;2024-03-08T14:48:52;10.40;99.90
7934;DHT22;4012;48.896;9.192;2024-03-08T14:51:19;10.40;99.90
7934;DHT22;4012;48.896;9.192;2024-03-08T14:53:47;10.30;99.90
7934;DHT22;4012;48.896;9.192;2024-03-08T14:56:16;10.30;99.90
7934;DHT22;4012;48.896;9.192;2024-03-08T14:58:45;10.30;99.90
7934;DHT22;4012;48.896;9.192;2024-03-08T15:01:12;10.40;99.90
7934;DHT22;4012;48.896;9.192;2024-03-08T15:03:41;10.50;99.90
7934;DHT22;4012;48.896;9.192;2024-03-08T15:06:08;10.50;99.90
7934;DHT22;4012;48.896;9.192;2024-03-08T15:08:38;10.60;99.90
7934;DHT22;4012;48.896;9.192;2024-03-08T15:11:06;10.50;99.90
7934;DHT22;4012;48.896;9.192;2024-03-08T15:13:33;10.30;99.90
7934;DHT22;4012;48.896;9.192;2024-03-08T15:16:06;10.40;99.90
7934;DHT22;4012;48.896;9.192;2024-03-08T15:18:33;10.50;99.90
7934;DHT22;4012;48.896;9.192;2024-03-08T15:21:06;10.50;99.90
7934;DHT22;4012;48.896;9.192;2024-03-08T15:23:35;10.50;99.90
7934;DHT22;4012;48.896;9.192;2024-03-08T15:26:04;10.40;99.90
7934;DHT22;4012;48.896;9.192;2024-03-08T15:28:33;10.40;99.90
7934;DHT22;4012;48.896;9.192;2024-03-08T15:31:06;10.40;99.90
7934;DHT22;4012;48.896;9.192;2024-03-08T15:33:35;10.50;99.90
7934;DHT22;4012;48.896;9.192;2024-03-08T15:36:12;10.40;99.90
7934;DHT22;4012;48.896;9.192;2024-03-08T15:38:41;10.70;99.90
7934;DHT22;4012;48.896;9.192;2024-03-08T15:41:06;10.60;99.90
7934;DHT22;4012;48.896;9.192;2024-03-08T15:43:36;10.70;99.90
7934;DHT22;4012;48.896;9.192;2024-03-08T15:46:03;10.70;99.90
7934;DHT22;4012;48.896;9.192;2024-03-08T15:48:31;10.70;99.90
7934;DHT22;4012;48.896;9.192;2024-03-08T15:50:57;10.70;99.90
7934;DHT22;4012;48.896;9.192;2024-03-08T15:53:22;10.50;99.90
7934;DHT22;4012;48.896;9.192;2024-03-08T15:55:49;10.60;99.90
7934;DHT22;4012;48.896;9.192;2024-03-08T15:58:15;10.60;99.90
7934;DHT22;4012;48.896;9.192;2024-03-08T16:00:41;10.50;99.90
7934;DHT22;4012;48.896;9.192;2024-03-08T16:03:13;10.50;99.90
7934;DHT22;4012;48.896;9.192;2024-03-08T16:05:43;10.50;99.90
7934;DHT22;4012;48.896;9.192;2024-03-08T16:08:14;10.40;99.90
7934;DHT22;4012;48.896;9.192;2024-03-08T16:10:47;10.50;99.90
7934;DHT22;4012;48.896;9.192;2024-03-08T16:13:22;10.50;99.90
7934;DHT22;4012;48.896;9.192;2024-03-08T16:15:49;10.60;99.90
7934;DHT22;4012;48.896;9.192;2024-03-08T16:18:16;10.60;99.90
7934;DHT22;4012;48.896;9.192;2024-03-08T16:20:42;10.60;99.90
7934;DHT22;4012;48.896;9.192;2024-03-08T16:23:14;10.60;99.90
7934;DHT22;4012;48.896;9.192;2024-03-08T16:25:41;10.50;99.90
7934;DHT22;4012;48.896;9.192;2024-03-08T16:28:13;10.40;99.90
7934;DHT22;4012;48.896;9.192;2024-03-08T16:30:43;10.30;99.90
7934;DHT22;4012;48.896;9.192;2024-03-08T16:33:17;10.40;99.90